Nippon Maru — 3FDA7 — position and weather

sailwx.info

Track history (hours):
 
Tides and Currents Weather Stations Pressure Air Temp Water Temp Dewpoint Dewpoint Depression Visibility Wind Speed Wind Dir Waves Ship Positions

Nippon Maru

Last reported at 2015-Jan-16 22:29 UTC. Time now 2015-Feb-01 05:38 UTC.
Position N 08°27' E 122°33'.
Warning: this ship's position is 15 days out of date.

Length 190 m; draft 6.4 m.

Type: Cargo ship. MMSI: 353814000.

Date/timePositionNaut miles runAvg speedWind from/ knotsBaromVisibWave heightAir tempDewpointWater temp
2015-Jan-16 22:29N 08°27' E 122°33'1314.0
2015-Jan-16 21:33N 08°35' E 122°44'1514.4
2015-Jan-16 20:33N 08°45' E 122°55'1414.0
2015-Jan-16 19:33N 08°54' E 123°05'1514.7
2015-Jan-16 18:33N 09°03' E 123°17'1515.1
2015-Jan-16 17:33N 09°16' E 123°24'1414.2
2015-Jan-16 16:33N 09°29' E 123°30'1413.9
2015-Jan-16 15:33N 09°42' E 123°35'1414.0
2015-Jan-16 14:33N 09°55' E 123°41'  
Track history (hours):
 
Tides and Currents Weather Stations Pressure Air Temp Water Temp Dewpoint Dewpoint Depression Visibility Wind Speed Wind Dir Waves Ship Positions

Nippon Maru

Last reported at 2015-Jan-16 22:29 UTC. Time now 2015-Feb-01 05:38 UTC.
Position N 08°27' E 122°33'.
Warning: this ship's position is 15 days out of date.

Length 190 m; draft 6.4 m.

Type: Cargo ship. MMSI: 353814000.

Date/timePositionNaut miles runAvg speedWind from/ knotsBaromVisibWave heightAir tempDewpointWater temp
2015-Jan-16 22:29N 08°27' E 122°33'1314.0
2015-Jan-16 21:33N 08°35' E 122°44'1514.4
2015-Jan-16 20:33N 08°45' E 122°55'1414.0
2015-Jan-16 19:33N 08°54' E 123°05'1514.7
2015-Jan-16 18:33N 09°03' E 123°17'1515.1
2015-Jan-16 17:33N 09°16' E 123°24'1414.2
2015-Jan-16 16:33N 09°29' E 123°30'1413.9
2015-Jan-16 15:33N 09°42' E 123°35'1414.0
2015-Jan-16 14:33N 09°55' E 123°41'  

Dump ship's entire track history